sensor_id;sensor_type;location;lat;lon;timestamp;P1;durP1;ratioP1;P2;durP2;ratioP2
5690;SDS011;2870;42.680;23.364;2023-05-07T00:00:35;18.37;;;12.37;;
5690;SDS011;2870;42.680;23.364;2023-05-07T00:03:02;26.17;;;12.37;;
5690;SDS011;2870;42.680;23.364;2023-05-07T00:05:31;21.00;;;13.67;;
5690;SDS011;2870;42.680;23.364;2023-05-07T00:07:58;16.90;;;12.20;;
5690;SDS011;2870;42.680;23.364;2023-05-07T00:10:25;20.10;;;13.53;;
5690;SDS011;2870;42.680;23.364;2023-05-07T00:12:52;18.73;;;12.97;;
5690;SDS011;2870;42.680;23.364;2023-05-07T00:15:19;16.70;;;12.43;;
5690;SDS011;2870;42.680;23.364;2023-05-07T00:17:46;23.70;;;13.63;;
5690;SDS011;2870;42.680;23.364;2023-05-07T00:20:13;19.23;;;12.93;;
5690;SDS011;2870;42.680;23.364;2023-05-07T00:22:41;18.80;;;13.00;;
5690;SDS011;2870;42.680;23.364;2023-05-07T00:25:08;21.00;;;13.00;;
5690;SDS011;2870;42.680;23.364;2023-05-07T00:27:35;16.60;;;12.33;;
5690;SDS011;2870;42.680;23.364;2023-05-07T00:30:02;19.43;;;12.27;;
5690;SDS011;2870;42.680;23.364;2023-05-07T00:32:29;18.10;;;12.83;;
5690;SDS011;2870;42.680;23.364;2023-05-07T00:34:56;23.23;;;13.17;;
5690;SDS011;2870;42.680;23.364;2023-05-07T00:37:22;18.67;;;12.70;;
5690;SDS011;2870;42.680;23.364;2023-05-07T00:39:50;22.63;;;14.17;;
5690;SDS011;2870;42.680;23.364;2023-05-07T00:42:17;23.17;;;15.00;;
5690;SDS011;2870;42.680;23.364;2023-05-07T00:44:44;21.60;;;13.83;;
5690;SDS011;2870;42.680;23.364;2023-05-07T00:47:11;19.50;;;13.60;;
5690;SDS011;2870;42.680;23.364;2023-05-07T00:49:39;18.73;;;12.13;;
5690;SDS011;2870;42.680;23.364;2023-05-07T00:52:09;17.83;;;12.30;;
5690;SDS011;2870;42.680;23.364;2023-05-07T00:54:40;20.77;;;12.03;;
5690;SDS011;2870;42.680;23.364;2023-05-07T00:57:08;18.93;;;12.67;;
5690;SDS011;2870;42.680;23.364;2023-05-07T00:59:36;20.30;;;11.37;;
5690;SDS011;2870;42.680;23.364;2023-05-07T01:02:03;18.37;;;12.83;;
5690;SDS011;2870;42.680;23.364;2023-05-07T01:04:30;22.30;;;13.13;;
5690;SDS011;2870;42.680;23.364;2023-05-07T01:06:57;18.60;;;11.60;;
5690;SDS011;2870;42.680;23.364;2023-05-07T01:09:25;14.47;;;9.83;;
5690;SDS011;2870;42.680;23.364;2023-05-07T01:11:53;13.63;;;10.00;;
5690;SDS011;2870;42.680;23.364;2023-05-07T01:14:23;13.43;;;8.63;;
5690;SDS011;2870;42.680;23.364;2023-05-07T01:16:51;12.47;;;8.90;;
5690;SDS011;2870;42.680;23.364;2023-05-07T01:19:18;15.33;;;9.00;;
5690;SDS011;2870;42.680;23.364;2023-05-07T01:21:47;17.50;;;8.73;;
5690;SDS011;2870;42.680;23.364;2023-05-07T01:24:16;12.40;;;8.33;;
5690;SDS011;2870;42.680;23.364;2023-05-07T01:26:44;13.00;;;8.53;;
5690;SDS011;2870;42.680;23.364;2023-05-07T01:29:11;10.57;;;8.03;;
5690;SDS011;2870;42.680;23.364;2023-05-07T01:31:38;15.10;;;7.60;;
5690;SDS011;2870;42.680;23.364;2023-05-07T01:34:08;12.30;;;8.57;;
5690;SDS011;2870;42.680;23.364;2023-05-07T01:36:39;9.30;;;7.10;;
5690;SDS011;2870;42.680;23.364;2023-05-07T01:39:07;11.80;;;8.20;;
5690;SDS011;2870;42.680;23.364;2023-05-07T01:41:37;12.03;;;8.60;;
5690;SDS011;2870;42.680;23.364;2023-05-07T01:44:04;11.93;;;7.97;;
5690;SDS011;2870;42.680;23.364;2023-05-07T01:46:32;10.97;;;7.70;;
5690;SDS011;2870;42.680;23.364;2023-05-07T01:48:59;17.33;;;8.63;;
5690;SDS011;2870;42.680;23.364;2023-05-07T01:51:26;10.17;;;8.10;;
5690;SDS011;2870;42.680;23.364;2023-05-07T01:53:53;13.07;;;8.10;;
5690;SDS011;2870;42.680;23.364;2023-05-07T01:56:20;13.60;;;8.17;;
5690;SDS011;2870;42.680;23.364;2023-05-07T01:58:48;11.70;;;8.17;;
5690;SDS011;2870;42.680;23.364;2023-05-07T02:01:16;13.20;;;9.10;;
5690;SDS011;2870;42.680;23.364;2023-05-07T02:03:43;13.83;;;9.43;;
5690;SDS011;2870;42.680;23.364;2023-05-07T02:06:10;13.20;;;10.00;;
5690;SDS011;2870;42.680;23.364;2023-05-07T02:08:36;15.50;;;10.20;;
5690;SDS011;2870;42.680;23.364;2023-05-07T02:11:03;20.07;;;9.77;;
5690;SDS011;2870;42.680;23.364;2023-05-07T02:13:31;12.37;;;9.60;;
5690;SDS011;2870;42.680;23.364;2023-05-07T02:16:01;17.20;;;9.80;;
5690;SDS011;2870;42.680;23.364;2023-05-07T02:18:28;13.10;;;9.50;;
5690;SDS011;2870;42.680;23.364;2023-05-07T02:20:55;15.50;;;10.60;;
5690;SDS011;2870;42.680;23.364;2023-05-07T02:23:22;16.17;;;11.07;;
5690;SDS011;2870;42.680;23.364;2023-05-07T02:25:49;13.33;;;10.10;;
5690;SDS011;2870;42.680;23.364;2023-05-07T02:28:16;14.00;;;9.97;;
5690;SDS011;2870;42.680;23.364;2023-05-07T02:30:43;13.37;;;9.77;;
5690;SDS011;2870;42.680;23.364;2023-05-07T02:33:11;13.20;;;9.90;;
5690;SDS011;2870;42.680;23.364;2023-05-07T02:35:39;15.00;;;10.83;;
5690;SDS011;2870;42.680;23.364;2023-05-07T02:38:05;16.40;;;10.47;;
5690;SDS011;2870;42.680;23.364;2023-05-07T02:40:32;17.30;;;11.37;;
5690;SDS011;2870;42.680;23.364;2023-05-07T02:43:03;23.30;;;12.00;;
5690;SDS011;2870;42.680;23.364;2023-05-07T02:45:30;17.43;;;11.73;;
5690;SDS011;2870;42.680;23.364;2023-05-07T02:47:57;16.80;;;11.40;;
5690;SDS011;2870;42.680;23.364;2023-05-07T02:50:26;16.33;;;10.70;;
5690;SDS011;2870;42.680;23.364;2023-05-07T02:52:53;21.93;;;11.53;;
5690;SDS011;2870;42.680;23.364;2023-05-07T02:55:20;19.53;;;12.40;;
5690;SDS011;2870;42.680;23.364;2023-05-07T02:57:47;19.53;;;13.20;;
5690;SDS011;2870;42.680;23.364;2023-05-07T03:00:14;17.83;;;13.33;;
5690;SDS011;2870;42.680;23.364;2023-05-07T03:02:42;19.33;;;13.40;;
5690;SDS011;2870;42.680;23.364;2023-05-07T03:05:10;19.07;;;13.20;;
5690;SDS011;2870;42.680;23.364;2023-05-07T03:07:39;18.77;;;12.47;;
5690;SDS011;2870;42.680;23.364;2023-05-07T03:10:06;18.50;;;13.33;;
5690;SDS011;2870;42.680;23.364;2023-05-07T03:12:33;17.47;;;12.70;;
5690;SDS011;2870;42.680;23.364;2023-05-07T03:15:00;20.63;;;12.93;;
5690;SDS011;2870;42.680;23.364;2023-05-07T03:17:27;23.93;;;14.50;;
5690;SDS011;2870;42.680;23.364;2023-05-07T03:19:54;18.47;;;14.20;;
5690;SDS011;2870;42.680;23.364;2023-05-07T03:22:21;20.97;;;14.00;;
5690;SDS011;2870;42.680;23.364;2023-05-07T03:24:49;20.10;;;14.37;;
5690;SDS011;2870;42.680;23.364;2023-05-07T03:27:16;19.43;;;14.63;;
5690;SDS011;2870;42.680;23.364;2023-05-07T03:29:43;22.80;;;15.40;;
5690;SDS011;2870;42.680;23.364;2023-05-07T03:32:10;19.60;;;14.20;;
5690;SDS011;2870;42.680;23.364;2023-05-07T03:34:37;19.60;;;14.37;;
5690;SDS011;2870;42.680;23.364;2023-05-07T03:37:04;18.63;;;13.70;;
5690;SDS011;2870;42.680;23.364;2023-05-07T03:39:31;19.57;;;14.00;;
5690;SDS011;2870;42.680;23.364;2023-05-07T03:41:59;21.43;;;14.77;;
5690;SDS011;2870;42.680;23.364;2023-05-07T03:44:27;31.33;;;13.00;;
5690;SDS011;2870;42.680;23.364;2023-05-07T03:46:53;23.47;;;15.27;;
5690;SDS011;2870;42.680;23.364;2023-05-07T03:49:20;21.80;;;14.53;;
5690;SDS011;2870;42.680;23.364;2023-05-07T03:51:47;21.77;;;14.33;;
5690;SDS011;2870;42.680;23.364;2023-05-07T03:54:14;22.10;;;15.17;;
5690;SDS011;2870;42.680;23.364;2023-05-07T03:56:41;19.90;;;13.63;;
5690;SDS011;2870;42.680;23.364;2023-05-07T03:59:09;23.17;;;15.40;;
5690;SDS011;2870;42.680;23.364;2023-05-07T04:01:36;22.10;;;14.70;;
5690;SDS011;2870;42.680;23.364;2023-05-07T04:04:03;17.80;;;13.30;;
5690;SDS011;2870;42.680;23.364;2023-05-07T04:06:30;22.03;;;14.17;;
5690;SDS011;2870;42.680;23.364;2023-05-07T04:08:57;23.03;;;13.20;;
5690;SDS011;2870;42.680;23.364;2023-05-07T04:11:23;22.50;;;14.47;;
5690;SDS011;2870;42.680;23.364;2023-05-07T04:13:51;19.87;;;14.20;;
5690;SDS011;2870;42.680;23.364;2023-05-07T04:16:19;23.00;;;14.60;;
5690;SDS011;2870;42.680;23.364;2023-05-07T04:18:45;19.57;;;14.13;;
5690;SDS011;2870;42.680;23.364;2023-05-07T04:21:15;26.47;;;13.77;;
5690;SDS011;2870;42.680;23.364;2023-05-07T04:23:42;24.83;;;14.00;;
5690;SDS011;2870;42.680;23.364;2023-05-07T04:26:09;24.70;;;15.13;;
5690;SDS011;2870;42.680;23.364;2023-05-07T04:28:36;22.70;;;14.00;;
5690;SDS011;2870;42.680;23.364;2023-05-07T04:31:03;23.10;;;15.40;;
5690;SDS011;2870;42.680;23.364;2023-05-07T04:33:32;21.00;;;14.27;;
5690;SDS011;2870;42.680;23.364;2023-05-07T04:36:00;25.23;;;14.30;;
5690;SDS011;2870;42.680;23.364;2023-05-07T04:38:29;21.23;;;14.23;;
5690;SDS011;2870;42.680;23.364;2023-05-07T04:40:56;21.13;;;13.63;;
5690;SDS011;2870;42.680;23.364;2023-05-07T04:43:23;20.77;;;14.07;;
5690;SDS011;2870;42.680;23.364;2023-05-07T04:45:50;18.80;;;13.03;;
5690;SDS011;2870;42.680;23.364;2023-05-07T04:48:17;23.63;;;13.93;;
5690;SDS011;2870;42.680;23.364;2023-05-07T04:50:48;20.57;;;13.30;;
5690;SDS011;2870;42.680;23.364;2023-05-07T04:53:15;18.83;;;13.00;;
5690;SDS011;2870;42.680;23.364;2023-05-07T04:55:42;20.93;;;14.70;;
5690;SDS011;2870;42.680;23.364;2023-05-07T04:58:10;23.70;;;15.50;;
5690;SDS011;2870;42.680;23.364;2023-05-07T05:00:36;20.17;;;14.70;;
5690;SDS011;2870;42.680;23.364;2023-05-07T05:03:04;23.40;;;14.47;;
5690;SDS011;2870;42.680;23.364;2023-05-07T05:05:30;16.53;;;13.33;;
5690;SDS011;2870;42.680;23.364;2023-05-07T05:07:59;19.80;;;12.80;;
5690;SDS011;2870;42.680;23.364;2023-05-07T05:10:26;19.83;;;14.50;;
5690;SDS011;2870;42.680;23.364;2023-05-07T05:12:52;24.23;;;14.70;;
5690;SDS011;2870;42.680;23.364;2023-05-07T05:15:19;28.20;;;13.93;;
5690;SDS011;2870;42.680;23.364;2023-05-07T05:17:46;23.97;;;13.50;;
5690;SDS011;2870;42.680;23.364;2023-05-07T05:20:13;20.10;;;13.47;;
5690;SDS011;2870;42.680;23.364;2023-05-07T05:22:40;22.50;;;13.20;;
5690;SDS011;2870;42.680;23.364;2023-05-07T05:25:09;22.83;;;14.33;;
5690;SDS011;2870;42.680;23.364;2023-05-07T05:27:36;20.57;;;14.30;;
5690;SDS011;2870;42.680;23.364;2023-05-07T05:32:30;28.47;;;14.10;;
5690;SDS011;2870;42.680;23.364;2023-05-07T05:34:57;23.40;;;15.50;;
5690;SDS011;2870;42.680;23.364;2023-05-07T05:37:25;20.40;;;13.77;;
5690;SDS011;2870;42.680;23.364;2023-05-07T05:39:52;19.83;;;14.70;;
5690;SDS011;2870;42.680;23.364;2023-05-07T05:42:21;19.73;;;13.37;;
5690;SDS011;2870;42.680;23.364;2023-05-07T05:44:48;18.27;;;12.67;;
5690;SDS011;2870;42.680;23.364;2023-05-07T05:47:15;23.23;;;14.37;;
5690;SDS011;2870;42.680;23.364;2023-05-07T05:49:42;21.27;;;13.27;;
5690;SDS011;2870;42.680;23.364;2023-05-07T05:52:12;22.53;;;13.90;;
5690;SDS011;2870;42.680;23.364;2023-05-07T05:54:39;20.40;;;13.97;;
5690;SDS011;2870;42.680;23.364;2023-05-07T05:57:06;22.13;;;14.00;;
5690;SDS011;2870;42.680;23.364;2023-05-07T05:59:34;17.60;;;12.90;;
5690;SDS011;2870;42.680;23.364;2023-05-07T06:02:02;17.40;;;13.23;;
5690;SDS011;2870;42.680;23.364;2023-05-07T06:04:29;21.80;;;13.00;;
5690;SDS011;2870;42.680;23.364;2023-05-07T06:06:56;18.00;;;12.63;;
5690;SDS011;2870;42.680;23.364;2023-05-07T06:09:23;19.80;;;12.60;;
5690;SDS011;2870;42.680;23.364;2023-05-07T06:11:49;24.00;;;13.33;;
5690;SDS011;2870;42.680;23.364;2023-05-07T06:14:16;18.00;;;12.23;;
5690;SDS011;2870;42.680;23.364;2023-05-07T06:16:44;24.93;;;13.17;;
5690;SDS011;2870;42.680;23.364;2023-05-07T06:19:11;23.27;;;14.10;;
5690;SDS011;2870;42.680;23.364;2023-05-07T06:21:38;22.70;;;12.30;;
5690;SDS011;2870;42.680;23.364;2023-05-07T06:24:06;23.10;;;14.07;;
5690;SDS011;2870;42.680;23.364;2023-05-07T06:26:33;19.57;;;12.67;;
5690;SDS011;2870;42.680;23.364;2023-05-07T06:28:59;21.33;;;13.17;;
5690;SDS011;2870;42.680;23.364;2023-05-07T06:31:29;21.13;;;12.60;;
5690;SDS011;2870;42.680;23.364;2023-05-07T06:33:58;17.63;;;12.60;;
5690;SDS011;2870;42.680;23.364;2023-05-07T06:36:27;22.07;;;12.90;;
5690;SDS011;2870;42.680;23.364;2023-05-07T06:38:54;18.60;;;13.13;;
5690;SDS011;2870;42.680;23.364;2023-05-07T06:41:21;18.53;;;12.43;;
5690;SDS011;2870;42.680;23.364;2023-05-07T06:43:47;19.03;;;12.07;;
5690;SDS011;2870;42.680;23.364;2023-05-07T06:46:14;16.37;;;12.10;;
5690;SDS011;2870;42.680;23.364;2023-05-07T06:48:41;24.30;;;13.50;;
5690;SDS011;2870;42.680;23.364;2023-05-07T06:51:09;18.80;;;12.47;;
5690;SDS011;2870;42.680;23.364;2023-05-07T06:53:37;22.20;;;12.70;;
5690;SDS011;2870;42.680;23.364;2023-05-07T06:56:03;19.83;;;13.67;;
5690;SDS011;2870;42.680;23.364;2023-05-07T06:58:31;21.53;;;13.07;;
5690;SDS011;2870;42.680;23.364;2023-05-07T07:00:58;25.67;;;15.77;;
5690;SDS011;2870;42.680;23.364;2023-05-07T07:03:24;20.23;;;13.30;;
5690;SDS011;2870;42.680;23.364;2023-05-07T07:05:51;19.93;;;13.87;;
5690;SDS011;2870;42.680;23.364;2023-05-07T07:08:19;21.63;;;14.50;;
5690;SDS011;2870;42.680;23.364;2023-05-07T07:10:47;19.63;;;13.60;;
5690;SDS011;2870;42.680;23.364;2023-05-07T07:13:14;22.40;;;13.90;;
5690;SDS011;2870;42.680;23.364;2023-05-07T07:15:41;21.73;;;13.43;;
5690;SDS011;2870;42.680;23.364;2023-05-07T07:18:08;18.70;;;13.50;;
5690;SDS011;2870;42.680;23.364;2023-05-07T07:20:35;22.60;;;12.83;;
5690;SDS011;2870;42.680;23.364;2023-05-07T07:23:02;19.00;;;13.80;;
5690;SDS011;2870;42.680;23.364;2023-05-07T07:25:30;26.00;;;12.97;;
5690;SDS011;2870;42.680;23.364;2023-05-07T07:27:57;17.77;;;12.30;;
5690;SDS011;2870;42.680;23.364;2023-05-07T07:30:24;17.90;;;13.23;;
5690;SDS011;2870;42.680;23.364;2023-05-07T07:32:52;22.57;;;15.47;;
5690;SDS011;2870;42.680;23.364;2023-05-07T07:35:18;25.30;;;13.93;;
5690;SDS011;2870;42.680;23.364;2023-05-07T07:37:45;20.30;;;14.00;;
5690;SDS011;2870;42.680;23.364;2023-05-07T07:40:14;24.53;;;15.07;;
5690;SDS011;2870;42.680;23.364;2023-05-07T07:42:43;20.80;;;13.80;;
5690;SDS011;2870;42.680;23.364;2023-05-07T07:45:10;19.07;;;14.03;;
5690;SDS011;2870;42.680;23.364;2023-05-07T07:47:37;20.63;;;13.80;;
5690;SDS011;2870;42.680;23.364;2023-05-07T07:50:04;19.37;;;13.10;;
5690;SDS011;2870;42.680;23.364;2023-05-07T07:52:32;21.53;;;12.70;;
5690;SDS011;2870;42.680;23.364;2023-05-07T07:54:59;22.40;;;13.30;;
5690;SDS011;2870;42.680;23.364;2023-05-07T07:57:26;21.43;;;13.13;;
5690;SDS011;2870;42.680;23.364;2023-05-07T07:59:54;18.40;;;12.70;;
5690;SDS011;2870;42.680;23.364;2023-05-07T08:02:21;21.23;;;12.40;;
5690;SDS011;2870;42.680;23.364;2023-05-07T08:04:48;23.23;;;13.07;;
5690;SDS011;2870;42.680;23.364;2023-05-07T08:07:15;20.97;;;12.40;;
5690;SDS011;2870;42.680;23.364;2023-05-07T08:09:43;29.70;;;13.30;;
5690;SDS011;2870;42.680;23.364;2023-05-07T08:12:10;21.43;;;11.50;;
5690;SDS011;2870;42.680;23.364;2023-05-07T08:14:37;17.80;;;12.07;;
5690;SDS011;2870;42.680;23.364;2023-05-07T08:17:05;17.83;;;11.70;;
5690;SDS011;2870;42.680;23.364;2023-05-07T08:19:32;17.60;;;12.37;;
5690;SDS011;2870;42.680;23.364;2023-05-07T08:21:59;17.83;;;11.53;;
5690;SDS011;2870;42.680;23.364;2023-05-07T08:24:26;20.50;;;11.87;;
5690;SDS011;2870;42.680;23.364;2023-05-07T08:26:53;17.20;;;10.43;;
5690;SDS011;2870;42.680;23.364;2023-05-07T08:29:20;17.67;;;11.77;;
5690;SDS011;2870;42.680;23.364;2023-05-07T08:31:47;21.30;;;11.13;;
5690;SDS011;2870;42.680;23.364;2023-05-07T08:34:15;18.50;;;11.40;;
5690;SDS011;2870;42.680;23.364;2023-05-07T08:36:42;16.77;;;10.90;;
5690;SDS011;2870;42.680;23.364;2023-05-07T08:39:09;16.03;;;12.00;;
5690;SDS011;2870;42.680;23.364;2023-05-07T08:41:35;17.27;;;10.30;;
5690;SDS011;2870;42.680;23.364;2023-05-07T08:44:02;26.47;;;10.80;;
5690;SDS011;2870;42.680;23.364;2023-05-07T08:46:32;17.67;;;9.90;;
5690;SDS011;2870;42.680;23.364;2023-05-07T08:49:00;13.63;;;10.40;;
5690;SDS011;2870;42.680;23.364;2023-05-07T08:51:28;13.90;;;9.57;;
5690;SDS011;2870;42.680;23.364;2023-05-07T08:53:56;18.67;;;10.70;;
5690;SDS011;2870;42.680;23.364;2023-05-07T08:56:24;17.40;;;10.67;;
5690;SDS011;2870;42.680;23.364;2023-05-07T08:58:51;13.63;;;9.90;;
5690;SDS011;2870;42.680;23.364;2023-05-07T09:01:21;18.83;;;9.43;;
5690;SDS011;2870;42.680;23.364;2023-05-07T09:03:49;18.80;;;9.23;;
5690;SDS011;2870;42.680;23.364;2023-05-07T09:06:16;13.63;;;8.90;;
5690;SDS011;2870;42.680;23.364;2023-05-07T09:08:45;13.57;;;7.87;;
5690;SDS011;2870;42.680;23.364;2023-05-07T09:11:15;10.17;;;5.50;;
5690;SDS011;2870;42.680;23.364;2023-05-07T09:13:42;13.67;;;7.43;;
5690;SDS011;2870;42.680;23.364;2023-05-07T09:16:10;11.47;;;6.73;;
5690;SDS011;2870;42.680;23.364;2023-05-07T09:18:40;11.40;;;7.83;;
5690;SDS011;2870;42.680;23.364;2023-05-07T09:21:09;10.50;;;6.70;;
5690;SDS011;2870;42.680;23.364;2023-05-07T09:23:36;9.67;;;6.93;;
5690;SDS011;2870;42.680;23.364;2023-05-07T09:26:05;11.17;;;7.73;;
5690;SDS011;2870;42.680;23.364;2023-05-07T09:28:37;18.43;;;7.50;;
5690;SDS011;2870;42.680;23.364;2023-05-07T09:31:05;12.70;;;7.00;;
5690;SDS011;2870;42.680;23.364;2023-05-07T09:33:32;14.33;;;6.37;;
5690;SDS011;2870;42.680;23.364;2023-05-07T09:36:01;8.93;;;5.67;;
5690;SDS011;2870;42.680;23.364;2023-05-07T09:38:29;11.10;;;6.70;;
5690;SDS011;2870;42.680;23.364;2023-05-07T09:41:03;15.70;;;6.47;;
5690;SDS011;2870;42.680;23.364;2023-05-07T09:43:33;8.67;;;6.10;;
5690;SDS011;2870;42.680;23.364;2023-05-07T09:46:03;10.97;;;6.30;;
5690;SDS011;2870;42.680;23.364;2023-05-07T09:48:35;10.13;;;5.20;;
5690;SDS011;2870;42.680;23.364;2023-05-07T09:51:06;10.67;;;6.10;;
5690;SDS011;2870;42.680;23.364;2023-05-07T09:53:37;10.17;;;6.33;;
5690;SDS011;2870;42.680;23.364;2023-05-07T09:56:07;10.53;;;6.10;;
5690;SDS011;2870;42.680;23.364;2023-05-07T09:58:36;12.13;;;6.40;;
5690;SDS011;2870;42.680;23.364;2023-05-07T10:01:04;10.97;;;5.73;;
5690;SDS011;2870;42.680;23.364;2023-05-07T10:03:32;10.70;;;6.53;;
5690;SDS011;2870;42.680;23.364;2023-05-07T10:06:01;14.90;;;5.93;;
5690;SDS011;2870;42.680;23.364;2023-05-07T10:08:30;9.30;;;5.70;;
5690;SDS011;2870;42.680;23.364;2023-05-07T10:10:57;7.50;;;4.40;;
5690;SDS011;2870;42.680;23.364;2023-05-07T10:13:25;9.37;;;5.80;;
5690;SDS011;2870;42.680;23.364;2023-05-07T10:15:52;13.47;;;5.03;;
5690;SDS011;2870;42.680;23.364;2023-05-07T10:18:20;9.97;;;5.50;;
5690;SDS011;2870;42.680;23.364;2023-05-07T10:20:54;10.80;;;5.47;;
5690;SDS011;2870;42.680;23.364;2023-05-07T10:23:34;6.60;;;4.50;;
5690;SDS011;2870;42.680;23.364;2023-05-07T10:26:02;6.43;;;4.23;;
5690;SDS011;2870;42.680;23.364;2023-05-07T10:28:33;11.73;;;4.80;;
5690;SDS011;2870;42.680;23.364;2023-05-07T10:31:07;8.73;;;4.10;;
5690;SDS011;2870;42.680;23.364;2023-05-07T10:33:42;8.20;;;4.37;;
5690;SDS011;2870;42.680;23.364;2023-05-07T10:36:11;8.10;;;4.50;;
5690;SDS011;2870;42.680;23.364;2023-05-07T10:38:38;7.73;;;4.70;;
5690;SDS011;2870;42.680;23.364;2023-05-07T10:41:06;6.70;;;4.27;;
5690;SDS011;2870;42.680;23.364;2023-05-07T10:43:41;7.47;;;4.07;;
5690;SDS011;2870;42.680;23.364;2023-05-07T10:46:09;13.57;;;5.10;;
5690;SDS011;2870;42.680;23.364;2023-05-07T10:51:37;7.00;;;4.50;;
5690;SDS011;2870;42.680;23.364;2023-05-07T10:54:23;12.60;;;3.97;;
5690;SDS011;2870;42.680;23.364;2023-05-07T10:56:50;8.93;;;4.53;;
5690;SDS011;2870;42.680;23.364;2023-05-07T11:02:08;13.23;;;5.07;;
5690;SDS011;2870;42.680;23.364;2023-05-07T11:04:36;8.10;;;5.80;;
5690;SDS011;2870;42.680;23.364;2023-05-07T11:09:57;8.17;;;5.40;;
5690;SDS011;2870;42.680;23.364;2023-05-07T11:12:46;10.10;;;6.30;;
5690;SDS011;2870;42.680;23.364;2023-05-07T11:15:37;11.90;;;6.17;;
5690;SDS011;2870;42.680;23.364;2023-05-07T11:18:09;10.63;;;6.13;;
5690;SDS011;2870;42.680;23.364;2023-05-07T11:20:46;8.37;;;5.30;;
5690;SDS011;2870;42.680;23.364;2023-05-07T11:26:22;8.23;;;5.67;;
5690;SDS011;2870;42.680;23.364;2023-05-07T11:28:50;11.33;;;6.23;;
5690;SDS011;2870;42.680;23.364;2023-05-07T11:31:21;9.90;;;6.20;;
5690;SDS011;2870;42.680;23.364;2023-05-07T11:33:51;9.30;;;5.47;;
5690;SDS011;2870;42.680;23.364;2023-05-07T11:36:18;26.17;;;7.00;;
5690;SDS011;2870;42.680;23.364;2023-05-07T11:38:46;15.57;;;6.60;;
5690;SDS011;2870;42.680;23.364;2023-05-07T11:41:13;14.90;;;6.10;;
5690;SDS011;2870;42.680;23.364;2023-05-07T11:43:53;13.73;;;6.60;;
5690;SDS011;2870;42.680;23.364;2023-05-07T11:46:22;10.20;;;6.13;;
5690;SDS011;2870;42.680;23.364;2023-05-07T11:48:49;8.50;;;5.57;;
5690;SDS011;2870;42.680;23.364;2023-05-07T11:51:19;9.20;;;6.10;;
5690;SDS011;2870;42.680;23.364;2023-05-07T11:53:47;8.30;;;5.70;;
5690;SDS011;2870;42.680;23.364;2023-05-07T11:56:15;9.80;;;5.60;;
5690;SDS011;2870;42.680;23.364;2023-05-07T11:58:44;9.03;;;5.90;;
5690;SDS011;2870;42.680;23.364;2023-05-07T12:01:12;10.20;;;6.23;;
5690;SDS011;2870;42.680;23.364;2023-05-07T12:03:42;11.03;;;5.17;;
5690;SDS011;2870;42.680;23.364;2023-05-07T12:06:10;13.27;;;6.03;;
5690;SDS011;2870;42.680;23.364;2023-05-07T12:08:38;11.93;;;6.03;;
5690;SDS011;2870;42.680;23.364;2023-05-07T12:11:07;7.57;;;5.57;;
5690;SDS011;2870;42.680;23.364;2023-05-07T12:13:34;10.67;;;5.40;;
5690;SDS011;2870;42.680;23.364;2023-05-07T12:16:01;10.00;;;5.60;;
5690;SDS011;2870;42.680;23.364;2023-05-07T12:18:29;7.53;;;5.73;;
5690;SDS011;2870;42.680;23.364;2023-05-07T12:20:58;11.30;;;5.33;;
5690;SDS011;2870;42.680;23.364;2023-05-07T12:23:25;18.87;;;6.80;;
5690;SDS011;2870;42.680;23.364;2023-05-07T12:25:53;8.23;;;5.43;;
5690;SDS011;2870;42.680;23.364;2023-05-07T12:28:19;11.13;;;5.80;;
5690;SDS011;2870;42.680;23.364;2023-05-07T12:30:47;7.27;;;4.70;;
5690;SDS011;2870;42.680;23.364;2023-05-07T12:33:16;8.13;;;5.00;;
5690;SDS011;2870;42.680;23.364;2023-05-07T12:35:43;8.37;;;5.37;;
5690;SDS011;2870;42.680;23.364;2023-05-07T12:38:12;8.70;;;4.90;;
5690;SDS011;2870;42.680;23.364;2023-05-07T12:40:40;7.00;;;4.90;;
5690;SDS011;2870;42.680;23.364;2023-05-07T12:43:14;7.93;;;5.27;;
5690;SDS011;2870;42.680;23.364;2023-05-07T12:45:42;11.43;;;4.80;;
5690;SDS011;2870;42.680;23.364;2023-05-07T12:48:10;8.37;;;4.97;;
5690;SDS011;2870;42.680;23.364;2023-05-07T12:50:37;12.50;;;5.03;;
5690;SDS011;2870;42.680;23.364;2023-05-07T12:53:04;9.97;;;5.43;;
5690;SDS011;2870;42.680;23.364;2023-05-07T12:55:34;8.13;;;4.53;;
5690;SDS011;2870;42.680;23.364;2023-05-07T12:58:07;8.20;;;4.23;;
5690;SDS011;2870;42.680;23.364;2023-05-07T13:00:34;6.10;;;3.80;;
5690;SDS011;2870;42.680;23.364;2023-05-07T13:03:02;6.10;;;4.13;;
5690;SDS011;2870;42.680;23.364;2023-05-07T13:05:30;7.70;;;4.40;;
5690;SDS011;2870;42.680;23.364;2023-05-07T13:07:57;8.20;;;4.30;;
5690;SDS011;2870;42.680;23.364;2023-05-07T13:10:24;10.17;;;4.40;;
5690;SDS011;2870;42.680;23.364;2023-05-07T13:12:53;7.90;;;3.97;;
5690;SDS011;2870;42.680;23.364;2023-05-07T13:15:20;15.90;;;4.47;;
5690;SDS011;2870;42.680;23.364;2023-05-07T13:17:48;9.00;;;3.80;;
5690;SDS011;2870;42.680;23.364;2023-05-07T13:20:15;7.80;;;4.40;;
5690;SDS011;2870;42.680;23.364;2023-05-07T13:22:42;6.97;;;4.47;;
5690;SDS011;2870;42.680;23.364;2023-05-07T13:25:09;6.03;;;3.87;;
5690;SDS011;2870;42.680;23.364;2023-05-07T13:27:36;7.10;;;4.70;;
5690;SDS011;2870;42.680;23.364;2023-05-07T13:30:04;11.20;;;4.27;;
5690;SDS011;2870;42.680;23.364;2023-05-07T13:32:32;9.77;;;4.60;;
5690;SDS011;2870;42.680;23.364;2023-05-07T13:35:00;11.90;;;4.40;;
5690;SDS011;2870;42.680;23.364;2023-05-07T13:37:27;8.80;;;4.80;;
5690;SDS011;2870;42.680;23.364;2023-05-07T13:39:54;7.70;;;3.87;;
5690;SDS011;2870;42.680;23.364;2023-05-07T13:42:20;5.93;;;3.80;;
5690;SDS011;2870;42.680;23.364;2023-05-07T13:44:47;9.40;;;4.63;;
5690;SDS011;2870;42.680;23.364;2023-05-07T13:47:15;11.20;;;4.33;;
5690;SDS011;2870;42.680;23.364;2023-05-07T13:49:42;8.60;;;5.17;;
5690;SDS011;2870;42.680;23.364;2023-05-07T13:52:09;9.07;;;4.43;;
5690;SDS011;2870;42.680;23.364;2023-05-07T13:54:36;7.13;;;4.13;;
5690;SDS011;2870;42.680;23.364;2023-05-07T13:57:03;10.10;;;4.50;;
5690;SDS011;2870;42.680;23.364;2023-05-07T13:59:30;6.43;;;4.37;;
5690;SDS011;2870;42.680;23.364;2023-05-07T14:01:57;6.73;;;4.10;;
5690;SDS011;2870;42.680;23.364;2023-05-07T14:04:26;9.17;;;4.40;;
5690;SDS011;2870;42.680;23.364;2023-05-07T14:06:53;6.40;;;4.40;;
5690;SDS011;2870;42.680;23.364;2023-05-07T14:09:19;7.83;;;4.60;;
5690;SDS011;2870;42.680;23.364;2023-05-07T14:11:46;14.13;;;5.23;;
5690;SDS011;2870;42.680;23.364;2023-05-07T14:14:16;7.43;;;5.00;;
5690;SDS011;2870;42.680;23.364;2023-05-07T14:16:43;8.30;;;4.63;;
5690;SDS011;2870;42.680;23.364;2023-05-07T14:19:10;11.67;;;4.40;;
5690;SDS011;2870;42.680;23.364;2023-05-07T14:21:38;10.73;;;4.57;;
5690;SDS011;2870;42.680;23.364;2023-05-07T14:24:05;8.00;;;4.90;;
5690;SDS011;2870;42.680;23.364;2023-05-07T14:26:33;9.33;;;5.00;;
5690;SDS011;2870;42.680;23.364;2023-05-07T14:29:00;6.40;;;4.17;;
5690;SDS011;2870;42.680;23.364;2023-05-07T14:31:27;10.70;;;4.73;;
5690;SDS011;2870;42.680;23.364;2023-05-07T14:33:55;8.87;;;5.10;;
5690;SDS011;2870;42.680;23.364;2023-05-07T14:36:23;8.43;;;4.43;;
5690;SDS011;2870;42.680;23.364;2023-05-07T14:38:52;8.03;;;4.53;;
5690;SDS011;2870;42.680;23.364;2023-05-07T14:41:20;5.93;;;3.73;;
5690;SDS011;2870;42.680;23.364;2023-05-07T14:43:47;12.50;;;4.80;;
5690;SDS011;2870;42.680;23.364;2023-05-07T14:46:15;9.97;;;5.10;;
5690;SDS011;2870;42.680;23.364;2023-05-07T14:48:43;6.70;;;4.40;;
5690;SDS011;2870;42.680;23.364;2023-05-07T14:51:10;10.07;;;4.57;;
5690;SDS011;2870;42.680;23.364;2023-05-07T14:53:37;8.93;;;4.33;;
5690;SDS011;2870;42.680;23.364;2023-05-07T14:56:05;7.50;;;4.60;;
5690;SDS011;2870;42.680;23.364;2023-05-07T14:58:32;8.63;;;4.17;;
5690;SDS011;2870;42.680;23.364;2023-05-07T15:00:59;10.13;;;4.60;;